createdAt,value
2023-04-14T00:00:59.803Z,97267.19
2023-04-14T00:03:28.091Z,97270.81
2023-04-14T00:05:56.197Z,97276.88
2023-04-14T00:08:24.245Z,97280.19
2023-04-14T00:10:52.262Z,97271.31
2023-04-14T00:13:21.702Z,97274.75
2023-04-14T00:15:49.696Z,97277.78
2023-04-14T00:18:17.727Z,97275.66
2023-04-14T00:20:45.747Z,97277.16
2023-04-14T00:23:13.801Z,97267.28
2023-04-14T00:25:42.014Z,97271.81
2023-04-14T00:28:09.974Z,97276.41
2023-04-14T00:30:39.388Z,97268.16
2023-04-14T00:33:07.446Z,97268.84
2023-04-14T00:35:35.521Z,97271.81
2023-04-14T00:38:03.568Z,97277.31
2023-04-14T00:40:31.749Z,97266.28
2023-04-14T00:43:00.127Z,97261.56
2023-04-14T00:45:28.458Z,97271.56
2023-04-14T00:47:59.646Z,97267.41
2023-04-14T00:50:27.838Z,97270.41
2023-04-14T00:52:56.142Z,97275.25
2023-04-14T00:55:24.213Z,97259.34
2023-04-14T00:57:52.396Z,97262.50
2023-04-14T01:00:20.830Z,97259.41
2023-04-14T01:02:49.037Z,97256.38
2023-04-14T01:05:19.069Z,97250.81
2023-04-14T01:07:49.221Z,97247.53
2023-04-14T01:10:17.805Z,97250.28
2023-04-14T01:13:07.315Z,97248.06
2023-04-14T01:15:40.170Z,97249.81
2023-04-14T01:18:17.581Z,97253.72
2023-04-14T01:20:51.195Z,97249.16
2023-04-14T01:23:24.957Z,97249.22
2023-04-14T01:26:18.107Z,97246.66
2023-04-14T01:29:19.527Z,97237.91
2023-04-14T01:31:51.581Z,97231.84
2023-04-14T01:34:26.118Z,97229.41
2023-04-14T01:36:58.172Z,97238.28
2023-04-14T01:39:32.118Z,97226.97
2023-04-14T01:42:00.308Z,97229.81
2023-04-14T01:44:30.584Z,97223.06
2023-04-14T01:47:05.647Z,97215.28
2023-04-14T01:49:36.388Z,97220.13
2023-04-14T01:52:10.290Z,97211.44
2023-04-14T01:54:40.827Z,97208.59
2023-04-14T01:57:10.298Z,97215.63
2023-04-14T01:59:39.957Z,97219.22
2023-04-14T02:02:11.418Z,97221.28
2023-04-14T02:04:41.139Z,97216.72
2023-04-14T02:07:12.718Z,97215.44
2023-04-14T02:09:43.152Z,97215.19
2023-04-14T02:12:13.132Z,97223.00
2023-04-14T02:14:42.778Z,97218.22
2023-04-14T02:17:12.899Z,97213.69
2023-04-14T02:19:43.707Z,97212.19
2023-04-14T02:22:11.853Z,97204.56
2023-04-14T02:24:39.949Z,97207.03
2023-04-14T02:27:11.466Z,97194.16
2023-04-14T02:29:43.694Z,97192.94
2023-04-14T02:32:21.014Z,97185.34
2023-04-14T02:34:53.626Z,97174.56
2023-04-14T02:37:26.167Z,97171.50
2023-04-14T02:39:59.962Z,97179.63
2023-04-14T02:42:31.544Z,97172.69
2023-04-14T02:45:06.276Z,97174.94
2023-04-14T02:47:38.450Z,97176.44
2023-04-14T02:50:10.500Z,97181.44
2023-04-14T02:52:41.379Z,97185.69
2023-04-14T02:55:11.718Z,97179.09
2023-04-14T02:57:41.255Z,97177.63
2023-04-14T03:00:11.224Z,97178.22
2023-04-14T03:02:47.248Z,97174.09
2023-04-14T03:05:15.718Z,97175.50
2023-04-14T03:07:53.921Z,97164.03
2023-04-14T03:10:23.479Z,97161.66
2023-04-14T03:12:53.295Z,97165.00
2023-04-14T03:15:23.713Z,97167.38
2023-04-14T03:17:56.075Z,97164.63
2023-04-14T03:20:26.983Z,97158.88
2023-04-14T03:23:01.791Z,97160.13
2023-04-14T03:25:36.745Z,97151.34
2023-04-14T03:28:12.303Z,97152.63
2023-04-14T03:30:44.621Z,97160.94
2023-04-14T03:33:18.189Z,97162.56
2023-04-14T03:35:47.747Z,97165.53
2023-04-14T03:38:17.152Z,97167.28
2023-04-14T03:40:48.552Z,97163.47
2023-04-14T03:43:24.111Z,97163.25
2023-04-14T03:45:58.358Z,97153.84
2023-04-14T03:48:31.777Z,97154.94
2023-04-14T03:51:02.690Z,97156.44
2023-04-14T03:53:34.913Z,97150.34
2023-04-14T03:56:05.309Z,97154.66
2023-04-14T03:58:35.570Z,97162.69
2023-04-14T04:01:04.584Z,97158.84
2023-04-14T04:03:35.867Z,97154.47
2023-04-14T04:06:05.531Z,97148.63
2023-04-14T04:08:35.386Z,97158.19
2023-04-14T04:11:08.609Z,97156.31
2023-04-14T04:13:37.939Z,97158.69
2023-04-14T04:16:10.369Z,97160.41
2023-04-14T04:18:47.170Z,97162.81
2023-04-14T04:21:19.931Z,97168.84
2023-04-14T04:23:52.677Z,97173.91
2023-04-14T04:26:22.646Z,97164.03
2023-04-14T04:28:51.648Z,97153.19
2023-04-14T04:31:21.394Z,97157.47
2023-04-14T04:33:52.084Z,97166.88
2023-04-14T04:36:22.012Z,97162.03
2023-04-14T04:38:50.610Z,97172.28
2023-04-14T04:41:23.084Z,97173.94
2023-04-14T04:43:52.355Z,97183.50
2023-04-14T04:46:41.740Z,97174.59
2023-04-14T04:49:11.438Z,97175.19
2023-04-14T04:51:39.501Z,97175.56
2023-04-14T04:54:08.180Z,97171.53
2023-04-14T04:56:36.362Z,97167.91
2023-04-14T04:59:04.523Z,97173.81
2023-04-14T05:01:32.707Z,97166.78
2023-04-14T05:04:01.031Z,97167.75
2023-04-14T05:06:30.709Z,97162.97
2023-04-14T05:08:58.944Z,97162.00
2023-04-14T05:11:27.422Z,97161.47
2023-04-14T05:13:56.363Z,97159.44
2023-04-14T05:16:25.610Z,97155.94
2023-04-14T05:18:53.743Z,97149.84
2023-04-14T05:21:22.351Z,97145.16
2023-04-14T05:23:51.797Z,97142.75
2023-04-14T05:26:44.516Z,97138.50
2023-04-14T05:29:07.839Z,97144.03
2023-04-14T05:31:35.887Z,97128.16
2023-04-14T05:34:04.025Z,97130.84
2023-04-14T05:36:32.291Z,97129.59
2023-04-14T05:39:01.700Z,97128.78
2023-04-14T05:41:29.706Z,97119.03
2023-04-14T05:43:57.790Z,97111.53
2023-04-14T05:46:26.321Z,97109.63
2023-04-14T05:48:54.297Z,97104.97
2023-04-14T05:51:22.267Z,97100.19
2023-04-14T05:53:50.351Z,97094.78
2023-04-14T05:56:19.864Z,97097.91
2023-04-14T05:58:47.905Z,97099.31
2023-04-14T06:01:16.553Z,97100.50
2023-04-14T06:03:44.780Z,97103.06
2023-04-14T06:06:13.001Z,97090.63
2023-04-14T06:08:41.062Z,97092.75
2023-04-14T06:11:09.287Z,97094.06
2023-04-14T06:13:38.730Z,97087.97
2023-04-14T06:16:07.559Z,97100.69
2023-04-14T06:18:35.807Z,97082.78
2023-04-14T06:21:03.785Z,97093.44
2023-04-14T06:23:32.461Z,97093.63
2023-04-14T06:26:00.476Z,97075.38
2023-04-14T06:28:28.500Z,97093.97
2023-04-14T06:30:58.208Z,97091.81
2023-04-14T06:33:26.367Z,97092.91
2023-04-14T06:35:54.934Z,97089.59
2023-04-14T06:38:24.801Z,97096.97
2023-04-14T06:40:53.459Z,97108.78
2023-04-14T06:43:21.535Z,97101.75
2023-04-14T06:45:50.955Z,97097.38
2023-04-14T06:48:20.945Z,97100.38
2023-04-14T06:50:54.770Z,97102.19
2023-04-14T06:53:22.987Z,97093.09
2023-04-14T06:55:59.243Z,97090.97
2023-04-14T06:58:28.492Z,97093.75
2023-04-14T07:00:57.698Z,97091.09
2023-04-14T07:03:29.250Z,97080.94
2023-04-14T07:06:03.940Z,97075.84
2023-04-14T07:08:33.055Z,97076.53
2023-04-14T07:11:02.162Z,97064.19
2023-04-14T07:13:30.431Z,97069.81
2023-04-14T07:15:59.232Z,97053.66
2023-04-14T07:18:29.078Z,97055.38
2023-04-14T07:20:57.188Z,97057.47
2023-04-14T07:23:25.346Z,97049.56
2023-04-14T07:25:54.775Z,97041.13
2023-04-14T07:28:23.755Z,97037.81
2023-04-14T07:30:52.813Z,97036.50
2023-04-14T07:33:22.428Z,97041.50
2023-04-14T07:36:01.900Z,97034.19
2023-04-14T07:38:32.416Z,97043.38
2023-04-14T07:41:01.388Z,97041.31
2023-04-14T07:43:34.845Z,97048.41
2023-04-14T07:46:04.457Z,97039.00
2023-04-14T07:48:32.871Z,97045.69
2023-04-14T07:51:03.157Z,97048.91
2023-04-14T07:53:31.480Z,97049.31
2023-04-14T07:56:00.532Z,97044.75
2023-04-14T07:58:29.656Z,97042.81
2023-04-14T08:00:58.408Z,97035.00
2023-04-14T08:03:27.195Z,97052.16
2023-04-14T08:05:55.492Z,97042.31
2023-04-14T08:08:25.339Z,97039.94
2023-04-14T08:10:53.465Z,97037.78
2023-04-14T08:13:21.516Z,97043.53
2023-04-14T08:15:49.991Z,97026.41
2023-04-14T08:18:18.151Z,97027.41
2023-04-14T08:20:46.286Z,97030.13
2023-04-14T08:23:14.502Z,97029.66
2023-04-14T08:25:44.427Z,97023.16
2023-04-14T08:28:12.818Z,97017.00
2023-04-14T08:30:41.502Z,97013.44
2023-04-14T08:33:09.616Z,97001.84
2023-04-14T08:35:42.785Z,97010.66
2023-04-14T08:38:12.034Z,96998.44
2023-04-14T08:40:41.865Z,96986.78
2023-04-14T08:43:14.792Z,96998.72
2023-04-14T08:45:45.099Z,96988.47
2023-04-14T08:48:16.124Z,96997.59
2023-04-14T08:50:51.872Z,96987.00
2023-04-14T08:53:24.693Z,97000.94
2023-04-14T08:55:54.859Z,96992.94
2023-04-14T08:58:25.780Z,97001.13
2023-04-14T09:00:54.601Z,96988.84
2023-04-14T09:03:23.082Z,96997.97
2023-04-14T09:05:52.037Z,96986.25
2023-04-14T09:08:21.337Z,96975.28
2023-04-14T09:10:49.973Z,96988.47
2023-04-14T09:13:19.496Z,96990.72
2023-04-14T09:15:49.547Z,96986.09
2023-04-14T09:18:18.352Z,96979.81
2023-04-14T09:20:48.010Z,96987.25
2023-04-14T09:23:36.291Z,96986.94
2023-04-14T09:26:09.265Z,96992.72
2023-04-14T09:28:37.385Z,96987.50
2023-04-14T09:31:08.380Z,96985.38
2023-04-14T09:33:40.333Z,96981.41
2023-04-14T09:36:18.939Z,96977.03
2023-04-14T09:38:46.986Z,96981.41
2023-04-14T09:41:17.428Z,96978.19
2023-04-14T09:43:45.792Z,96977.31
2023-04-14T09:46:15.662Z,96974.91
2023-04-14T09:48:54.039Z,96967.19
2023-04-14T09:51:28.489Z,96964.59
2023-04-14T09:54:02.555Z,96966.31
2023-04-14T09:56:31.006Z,96960.16
2023-04-14T09:59:02.111Z,96968.44
2023-04-14T10:01:34.802Z,96966.13
2023-04-14T10:04:03.817Z,96957.00
2023-04-14T10:06:32.547Z,96952.88
2023-04-14T10:09:01.707Z,96950.81
2023-04-14T10:11:32.900Z,96943.50
2023-04-14T10:14:03.938Z,96945.47
2023-04-14T10:16:35.004Z,96944.31
2023-04-14T10:19:03.883Z,96936.91
2023-04-14T10:21:32.350Z,96930.16
2023-04-14T10:24:01.696Z,96934.63
2023-04-14T10:26:30.143Z,96936.72
2023-04-14T10:28:58.868Z,96924.91
2023-04-14T10:31:32.751Z,96926.47
2023-04-14T10:34:08.733Z,96927.00
2023-04-14T10:36:37.291Z,96924.22
2023-04-14T10:39:06.793Z,96926.91
2023-04-14T10:41:46.887Z,96924.69
2023-04-14T10:44:25.687Z,96907.91
2023-04-14T10:46:56.554Z,96917.34
2023-04-14T10:49:33.232Z,96911.56
2023-04-14T10:52:03.589Z,96903.53
2023-04-14T10:54:49.649Z,96893.63
2023-04-14T10:57:18.895Z,96897.00
2023-04-14T10:59:48.130Z,96893.88
2023-04-14T11:02:26.667Z,96895.50
2023-04-14T11:05:05.226Z,96887.03
2023-04-14T11:07:40.491Z,96900.94
2023-04-14T11:10:32.134Z,96897.44
2023-04-14T11:13:06.035Z,96902.00
2023-04-14T11:15:48.345Z,96902.53
2023-04-14T11:18:17.916Z,96880.88
2023-04-14T11:20:47.562Z,96884.16
2023-04-14T11:23:16.618Z,96880.59
2023-04-14T11:25:45.690Z,96878.25
2023-04-14T11:28:13.960Z,96873.97
2023-04-14T11:30:43.129Z,96865.41
2023-04-14T11:33:11.277Z,96874.06
2023-04-14T11:35:39.510Z,96880.31
2023-04-14T11:38:12.042Z,96875.16
2023-04-14T11:40:40.255Z,96877.59
2023-04-14T11:43:08.331Z,96886.03
2023-04-14T11:45:36.443Z,96873.72
2023-04-14T11:48:07.202Z,96870.31
2023-04-14T11:50:38.986Z,96863.94
2023-04-14T11:53:10.330Z,96866.47
2023-04-14T11:55:39.361Z,96869.88
2023-04-14T11:58:07.506Z,96877.97
2023-04-14T12:00:35.690Z,96859.41
2023-04-14T12:03:04.876Z,96865.72
2023-04-14T12:05:34.365Z,96859.50
2023-04-14T12:08:03.958Z,96858.44
2023-04-14T12:10:34.410Z,96854.81
2023-04-14T12:13:03.570Z,96863.34
2023-04-14T12:15:33.041Z,96856.94
2023-04-14T12:18:02.045Z,96853.34
2023-04-14T12:20:31.503Z,96862.59
2023-04-14T12:23:03.629Z,96855.78
2023-04-14T12:25:34.664Z,96850.06
2023-04-14T12:28:06.272Z,96852.72
2023-04-14T12:30:34.813Z,96840.19
2023-04-14T12:33:09.763Z,96830.56
2023-04-14T12:35:38.049Z,96827.91
2023-04-14T12:38:10.906Z,96826.72
2023-04-14T12:40:42.690Z,96815.50
2023-04-14T12:43:11.249Z,96820.03
2023-04-14T12:45:43.412Z,96824.97
2023-04-14T12:48:12.566Z,96817.69
2023-04-14T12:50:40.950Z,96820.38
2023-04-14T12:53:25.130Z,96802.50
2023-04-14T12:56:10.301Z,96801.47
2023-04-14T12:58:41.033Z,96799.97
2023-04-14T13:01:10.639Z,96797.31
2023-04-14T13:03:44.966Z,96787.28
2023-04-14T13:06:16.463Z,96797.31
2023-04-14T13:08:46.043Z,96791.09
2023-04-14T13:11:16.784Z,96767.88
2023-04-14T13:13:49.044Z,96782.28
2023-04-14T13:16:18.774Z,96785.72
2023-04-14T13:18:49.300Z,96777.09
2023-04-14T13:21:17.697Z,96789.06
2023-04-14T13:23:46.029Z,96775.31
2023-04-14T13:26:15.698Z,96777.28
2023-04-14T13:28:43.805Z,96781.91
2023-04-14T13:31:13.290Z,96783.81
2023-04-14T13:33:41.539Z,96777.50
2023-04-14T13:36:10.690Z,96779.47
2023-04-14T13:38:38.761Z,96779.66
2023-04-14T13:41:07.300Z,96777.19
2023-04-14T13:43:37.595Z,96783.66
2023-04-14T13:46:06.441Z,96768.28
2023-04-14T13:48:34.541Z,96775.44
2023-04-14T13:51:02.890Z,96774.50
2023-04-14T13:53:31.093Z,96773.22
2023-04-14T13:55:59.197Z,96756.03
2023-04-14T13:58:27.552Z,96760.00
2023-04-14T14:00:57.427Z,96762.13
2023-04-14T14:03:27.898Z,96753.97
2023-04-14T14:05:57.265Z,96773.66
2023-04-14T14:08:25.341Z,96757.25
2023-04-14T14:10:54.456Z,96756.81
2023-04-14T14:13:22.413Z,96751.13
2023-04-14T14:15:50.508Z,96757.47
2023-04-14T14:18:19.946Z,96761.44
2023-04-14T14:20:48.281Z,96755.25
2023-04-14T14:23:16.479Z,96755.34
2023-04-14T14:25:45.008Z,96751.81
2023-04-14T14:28:13.607Z,96751.78
2023-04-14T14:30:41.761Z,96760.47
2023-04-14T14:33:09.816Z,96760.03
2023-04-14T14:35:39.449Z,96759.00
2023-04-14T14:38:08.549Z,96765.06
2023-04-14T14:40:36.747Z,96760.78
2023-04-14T14:43:05.321Z,96760.06
2023-04-14T14:45:33.741Z,96768.25
2023-04-14T14:48:02.076Z,96770.22
2023-04-14T14:50:30.214Z,96764.97
2023-04-14T14:52:59.576Z,96759.53
2023-04-14T14:55:27.694Z,96755.09
2023-04-14T14:57:55.804Z,96761.75
2023-04-14T15:00:23.896Z,96762.31
2023-04-14T15:02:52.155Z,96766.78
2023-04-14T15:05:20.333Z,96763.63
2023-04-14T15:07:48.564Z,96761.00
2023-04-14T15:10:18.091Z,96757.81
2023-04-14T15:12:46.133Z,96754.34
2023-04-14T15:15:14.285Z,96762.50
2023-04-14T15:17:42.395Z,96756.56
2023-04-14T15:20:11.456Z,96757.16
2023-04-14T15:22:39.609Z,96756.09
2023-04-14T15:25:09.255Z,96761.25
2023-04-14T15:27:38.838Z,96762.22
2023-04-14T15:30:08.614Z,96759.28
2023-04-14T15:32:36.758Z,96771.44
2023-04-14T15:35:05.150Z,96774.66
2023-04-14T15:37:33.347Z,96775.72
2023-04-14T15:40:01.515Z,96775.25
2023-04-14T15:42:29.533Z,96775.03
2023-04-14T15:44:58.931Z,96783.06
2023-04-14T15:47:27.049Z,96766.53
2023-04-14T15:50:09.194Z,96775.34
2023-04-14T15:52:44.732Z,96771.88
2023-04-14T15:55:14.087Z,96778.34
2023-04-14T15:57:42.122Z,96781.56
2023-04-14T16:00:13.073Z,96779.03
2023-04-14T16:02:42.054Z,96770.69
2023-04-14T16:05:10.693Z,96768.19
2023-04-14T16:07:38.930Z,96768.81
2023-04-14T16:10:08.594Z,96761.94
2023-04-14T16:12:36.763Z,96758.19
2023-04-14T16:15:08.326Z,96772.84
2023-04-14T16:17:37.820Z,96763.03
2023-04-14T16:20:06.902Z,96769.22
2023-04-14T16:22:35.034Z,96761.63
2023-04-14T16:25:04.405Z,96758.94
2023-04-14T16:27:32.531Z,96759.63
2023-04-14T16:30:00.835Z,96764.88
2023-04-14T16:32:29.898Z,96761.66
2023-04-14T16:34:59.620Z,96765.34
2023-04-14T16:37:27.669Z,96770.31
2023-04-14T16:39:56.115Z,96769.09
2023-04-14T16:42:25.208Z,96778.81
2023-04-14T16:44:53.530Z,96768.84
2023-04-14T16:47:22.513Z,96767.69
2023-04-14T16:49:51.827Z,96765.66
2023-04-14T16:52:21.371Z,96767.81
2023-04-14T16:54:49.453Z,96764.31
2023-04-14T16:57:17.536Z,96766.47
2023-04-14T16:59:46.302Z,96773.66
2023-04-14T17:02:14.580Z,96763.47
2023-04-14T17:04:42.931Z,96769.41
2023-04-14T17:07:11.202Z,96768.06
2023-04-14T17:09:40.620Z,96776.03
2023-04-14T17:12:08.710Z,96782.38
2023-04-14T17:14:37.316Z,96780.22
2023-04-14T17:17:05.465Z,96779.81
2023-04-14T17:19:34.272Z,96782.72
2023-04-14T17:22:02.253Z,96781.06
2023-04-14T17:24:30.909Z,96785.69
2023-04-14T17:27:00.765Z,96781.84
2023-04-14T17:29:29.086Z,96780.38
2023-04-14T17:31:57.254Z,96788.78
2023-04-14T17:34:25.816Z,96784.19
2023-04-14T17:36:53.823Z,96780.66
2023-04-14T17:39:26.779Z,96790.03
2023-04-14T17:41:56.160Z,96783.66
2023-04-14T17:44:31.957Z,96786.63
2023-04-14T17:47:01.034Z,96787.41
2023-04-14T17:49:29.503Z,96797.09
2023-04-14T17:51:57.910Z,96800.38
2023-04-14T17:54:27.327Z,96788.31
2023-04-14T17:56:55.363Z,96791.34
2023-04-14T17:59:26.035Z,96793.31
2023-04-14T18:01:54.270Z,96805.28
2023-04-14T18:04:22.598Z,96794.88
2023-04-14T18:06:51.254Z,96807.50
2023-04-14T18:09:19.280Z,96806.34
2023-04-14T18:11:47.421Z,96803.09
2023-04-14T18:14:15.488Z,96810.59
2023-04-14T18:16:44.985Z,96802.63
2023-04-14T18:19:13.724Z,96814.75
2023-04-14T18:21:43.801Z,96812.34
2023-04-14T18:26:44.680Z,96827.19
2023-04-14T18:29:12.760Z,96822.88
2023-04-14T18:31:40.875Z,96826.28
2023-04-14T18:34:11.854Z,96835.38
2023-04-14T18:36:40.637Z,96824.78
2023-04-14T18:39:09.117Z,96826.22
2023-04-14T18:41:37.191Z,96829.94
2023-04-14T18:44:05.579Z,96824.13
2023-04-14T18:46:33.729Z,96830.75
2023-04-14T18:49:02.117Z,96830.53
2023-04-14T18:51:32.597Z,96831.44
2023-04-14T18:54:00.953Z,96841.69
2023-04-14T18:56:29.358Z,96839.59
2023-04-14T18:58:57.658Z,96836.09
2023-04-14T19:01:30.153Z,96829.78
2023-04-14T19:04:02.238Z,96834.06
2023-04-14T19:06:34.846Z,96835.34
2023-04-14T19:09:05.956Z,96829.94
2023-04-14T19:11:37.710Z,96838.88
2023-04-14T19:14:08.748Z,96829.44
2023-04-14T19:16:39.827Z,96828.13
2023-04-14T19:19:10.394Z,96831.44
2023-04-14T19:21:49.773Z,96829.22
2023-04-14T19:24:30.847Z,96824.78
2023-04-14T19:27:11.361Z,96818.81
2023-04-14T19:29:42.229Z,96817.53
2023-04-14T19:32:12.038Z,96820.50
2023-04-14T19:34:41.629Z,96825.91
2023-04-14T19:37:22.239Z,96829.22
2023-04-14T19:40:04.211Z,96828.69
2023-04-14T19:42:47.038Z,96822.72
2023-04-14T19:45:23.489Z,96826.63
2023-04-14T19:48:00.024Z,96832.72
2023-04-14T19:50:43.288Z,96832.41
2023-04-14T19:53:15.582Z,96824.03
2023-04-14T19:55:49.457Z,96822.88
2023-04-14T19:58:20.073Z,96832.16
2023-04-14T20:00:51.072Z,96828.78
2023-04-14T20:03:19.514Z,96831.97
2023-04-14T20:05:51.849Z,96834.34
2023-04-14T20:08:21.857Z,96844.94
2023-04-14T20:10:51.889Z,96847.38
2023-04-14T20:13:21.364Z,96845.16
2023-04-14T20:15:49.782Z,96852.03
2023-04-14T20:18:19.017Z,96852.75
2023-04-14T20:20:48.771Z,96850.50
2023-04-14T20:23:17.138Z,96852.41
2023-04-14T20:25:48.651Z,96856.41
2023-04-14T20:28:19.480Z,96850.31
2023-04-14T20:30:49.424Z,96851.38
2023-04-14T20:33:18.817Z,96855.31
2023-04-14T20:35:46.852Z,96846.41
2023-04-14T20:38:15.940Z,96838.38
2023-04-14T20:40:43.976Z,96830.94
2023-04-14T20:43:14.457Z,96841.03
2023-04-14T20:45:42.831Z,96834.03
2023-04-14T20:48:10.820Z,96831.25
2023-04-14T20:50:38.909Z,96833.69
2023-04-14T20:53:07.477Z,96843.09
2023-04-14T20:55:36.553Z,96859.72
2023-04-14T20:58:04.757Z,96846.69
2023-04-14T21:00:35.283Z,96845.03
2023-04-14T21:03:04.471Z,96846.00
2023-04-14T21:05:32.986Z,96851.00
2023-04-14T21:08:01.103Z,96856.38
2023-04-14T21:10:29.259Z,96864.75
2023-04-14T21:15:28.122Z,96875.09
2023-04-14T21:15:54.606Z,96884.44
2023-04-14T21:18:23.317Z,96884.84
2023-04-14T21:20:51.350Z,96880.31
2023-04-14T21:23:20.405Z,96891.53
2023-04-14T21:25:48.482Z,96890.72
2023-04-14T21:28:16.921Z,96891.34
2023-04-14T21:30:44.873Z,96897.94
2023-04-14T21:33:14.408Z,96894.81
2023-04-14T21:35:42.482Z,96893.88
2023-04-14T21:38:11.297Z,96893.94
2023-04-14T21:40:39.636Z,96884.00
2023-04-14T21:43:07.671Z,96893.28
2023-04-14T21:45:36.119Z,96888.53
2023-04-14T21:48:04.307Z,96883.19
2023-04-14T21:50:34.753Z,96892.69
2023-04-14T21:53:04.238Z,96900.84
2023-04-14T21:55:32.569Z,96888.38
2023-04-14T21:58:03.248Z,96892.94
2023-04-14T22:00:31.389Z,96891.94
2023-04-14T22:02:59.590Z,96901.81
2023-04-14T22:05:27.746Z,96899.31
2023-04-14T22:07:57.125Z,96901.75
2023-04-14T22:10:31.881Z,96884.09
2023-04-14T22:13:00.506Z,96891.44
2023-04-14T22:15:29.559Z,96898.63
2023-04-14T22:17:58.746Z,96910.50
2023-04-14T22:20:27.040Z,96922.81
2023-04-14T22:22:56.563Z,96931.84
2023-04-14T22:25:24.649Z,96928.03
2023-04-14T22:27:52.792Z,96911.13
2023-04-14T22:30:20.774Z,96898.66
2023-04-14T22:32:48.949Z,96907.72
2023-04-14T22:35:17.131Z,96923.09
2023-04-14T22:37:45.160Z,96928.63
2023-04-14T22:40:14.891Z,96934.34
2023-04-14T22:42:43.060Z,96940.72
2023-04-14T22:45:11.170Z,96943.91
2023-04-14T22:47:39.238Z,96933.22
2023-04-14T22:50:09.090Z,96949.53
2023-04-14T22:52:37.675Z,96947.41
2023-04-14T22:55:06.750Z,96942.06
2023-04-14T22:57:36.217Z,96947.31
2023-04-14T23:00:09.151Z,96947.31
2023-04-14T23:02:37.454Z,96948.16
2023-04-14T23:05:06.741Z,96938.44
2023-04-14T23:07:34.950Z,96940.97
2023-04-14T23:10:03.281Z,96935.78
2023-04-14T23:12:31.400Z,96935.63
2023-04-14T23:15:00.822Z,96942.63
2023-04-14T23:17:29.188Z,96937.13
2023-04-14T23:19:57.620Z,96935.94
2023-04-14T23:22:25.761Z,96946.81
2023-04-14T23:24:53.805Z,96949.47
2023-04-14T23:27:21.952Z,96949.47
2023-04-14T23:29:50.026Z,96946.91
2023-04-14T23:32:19.456Z,96952.63
2023-04-14T23:34:47.479Z,96960.13
2023-04-14T23:37:15.661Z,96951.09
2023-04-14T23:39:43.631Z,96944.75
2023-04-14T23:42:11.913Z,96939.56
2023-04-14T23:44:39.881Z,96936.78
2023-04-14T23:47:08.487Z,96936.09
2023-04-14T23:49:38.055Z,96940.38
2023-04-14T23:52:06.952Z,96955.00
2023-04-14T23:54:34.964Z,96957.44
2023-04-14T23:57:03.324Z,96965.28
2023-04-14T23:59:31.464Z,96976.25
